Metar z połowy godziny Komunikat METAR ze strony awiacja.imgw.pl Metar G00 EPMO METAR EPMO 070030Z 19003KT 1200 R08/1000D -RA BR OVC005 00/00 Q1008 =